createdAt,value
2023-04-11T00:00:09.435Z,475.30
2023-04-11T00:02:39.110Z,520.20
2023-04-11T00:05:08.266Z,533.70
2023-04-11T00:07:36.743Z,523.28
2023-04-11T00:10:08.173Z,480.00
2023-04-11T00:12:36.524Z,515.33
2023-04-11T00:15:05.302Z,539.97
2023-04-11T00:17:33.663Z,505.75
2023-04-11T00:20:07.451Z,510.42
2023-04-11T00:22:36.226Z,516.58
2023-04-11T00:25:06.408Z,498.38
2023-04-11T00:27:34.755Z,502.50
2023-04-11T00:30:03.252Z,525.58
2023-04-11T00:32:31.879Z,497.52
2023-04-11T00:35:00.502Z,486.35
2023-04-11T00:37:28.777Z,484.17
2023-04-11T00:39:57.236Z,490.38
2023-04-11T00:42:26.865Z,511.63
2023-04-11T00:44:55.325Z,509.15
2023-04-11T00:47:23.724Z,501.33
2023-04-11T00:49:52.093Z,512.03
2023-04-11T00:52:20.663Z,501.13
2023-04-11T00:54:49.439Z,537.47
2023-04-11T00:57:17.996Z,519.40
2023-04-11T00:59:49.190Z,508.17
2023-04-11T01:02:18.219Z,497.92
2023-04-11T01:04:46.711Z,505.10
2023-04-11T01:07:15.836Z,526.70
2023-04-11T01:09:44.204Z,520.40
2023-04-11T01:12:12.659Z,490.75
2023-04-11T01:14:41.557Z,501.73
2023-04-11T01:17:12.696Z,509.30
2023-04-11T01:19:41.140Z,508.55
2023-04-11T01:22:10.047Z,528.47
2023-04-11T01:24:39.963Z,479.88
2023-04-11T01:27:08.280Z,544.13
2023-04-11T01:29:36.613Z,529.15
2023-04-11T01:32:05.533Z,539.05
2023-04-11T01:34:34.810Z,471.83
2023-04-11T01:37:03.296Z,507.25
2023-04-11T01:39:31.885Z,471.55
2023-04-11T01:42:02.728Z,554.70
2023-04-11T01:44:32.777Z,501.60
2023-04-11T01:47:01.399Z,645.90
2023-04-11T01:49:29.739Z,509.33
2023-04-11T01:51:58.112Z,572.72
2023-04-11T01:54:26.531Z,546.90
2023-04-11T01:56:54.923Z,546.40
2023-04-11T01:59:24.574Z,593.15
2023-04-11T02:01:53.026Z,682.38
2023-04-11T02:04:21.556Z,629.28
2023-04-11T02:06:50.013Z,581.38
2023-04-11T02:09:18.310Z,647.25
2023-04-11T02:11:46.652Z,669.15
2023-04-11T02:14:15.319Z,677.08
2023-04-11T02:16:56.743Z,676.10
2023-04-11T02:19:25.864Z,671.03
2023-04-11T02:21:54.309Z,651.08
2023-04-11T02:24:22.675Z,623.03
2023-04-11T02:26:51.040Z,649.58
2023-04-11T02:29:19.384Z,684.90
2023-04-11T02:31:50.084Z,640.33
2023-04-11T02:34:19.822Z,612.65
2023-04-11T02:36:48.971Z,580.03
2023-04-11T02:39:17.433Z,564.40
2023-04-11T02:41:45.754Z,594.55
2023-04-11T02:44:14.134Z,579.72
2023-04-11T02:46:42.541Z,553.38
2023-04-11T02:49:11.150Z,573.20
2023-04-11T02:51:40.973Z,566.70
2023-04-11T02:54:09.296Z,564.63
2023-04-11T02:56:39.071Z,626.90
2023-04-11T02:59:08.023Z,559.78
2023-04-11T03:01:42.202Z,539.10
2023-04-11T03:04:10.650Z,574.65
2023-04-11T03:06:40.688Z,663.22
2023-04-11T03:09:09.020Z,595.55
2023-04-11T03:11:37.323Z,580.70
2023-04-11T03:14:05.657Z,593.03
2023-04-11T03:16:34.057Z,593.20
2023-04-11T03:19:02.438Z,568.35
2023-04-11T03:21:31.297Z,633.58
2023-04-11T03:24:00.972Z,605.47
2023-04-11T03:26:29.310Z,656.35
2023-04-11T03:28:58.654Z,619.55
2023-04-11T03:31:27.452Z,635.00
2023-04-11T03:33:55.897Z,589.80
2023-04-11T03:36:26.537Z,650.33
2023-04-11T03:38:55.197Z,628.95
2023-04-11T03:41:25.144Z,596.45
2023-04-11T03:43:53.517Z,642.58
2023-04-11T03:46:21.851Z,608.83
2023-04-11T03:48:50.260Z,655.13
2023-04-11T03:51:19.018Z,636.38
2023-04-11T03:53:47.360Z,641.33
2023-04-11T03:56:15.825Z,636.45
2023-04-11T03:58:45.539Z,629.58
2023-04-11T04:01:13.891Z,618.25
2023-04-11T04:03:42.608Z,652.25
2023-04-11T04:06:11.622Z,675.53
2023-04-11T04:08:39.963Z,674.67
2023-04-11T04:11:08.411Z,734.88
2023-04-11T04:13:36.883Z,659.97
2023-04-11T04:16:07.338Z,638.08
2023-04-11T04:18:35.667Z,641.80
2023-04-11T04:21:04.129Z,656.53
2023-04-11T04:23:32.402Z,684.60
2023-04-11T04:26:02.611Z,720.28
2023-04-11T04:28:31.065Z,661.33
2023-04-11T04:30:59.443Z,620.05
2023-04-11T04:33:32.907Z,643.00
2023-04-11T04:36:02.221Z,614.15
2023-04-11T04:38:30.889Z,685.78
2023-04-11T04:40:59.225Z,656.80
2023-04-11T04:43:32.303Z,747.92
2023-04-11T04:46:00.737Z,649.20
2023-04-11T04:48:30.451Z,648.30
2023-04-11T04:50:58.827Z,663.42
2023-04-11T04:53:27.133Z,635.20
2023-04-11T04:55:55.964Z,629.75
2023-04-11T04:58:24.382Z,666.10
2023-04-11T05:00:56.023Z,642.70
2023-04-11T05:03:24.899Z,630.40
2023-04-11T05:05:54.673Z,709.65
2023-04-11T05:08:22.998Z,683.95
2023-04-11T05:10:51.305Z,666.42
2023-04-11T05:13:19.682Z,661.13
2023-04-11T05:15:52.050Z,699.20
2023-04-11T05:18:20.597Z,739.97
2023-04-11T05:20:48.902Z,679.28
2023-04-11T05:23:18.582Z,715.65
2023-04-11T05:25:46.894Z,652.13
2023-04-11T05:28:15.496Z,803.90
2023-04-11T05:30:43.888Z,642.65
2023-04-11T05:33:12.911Z,656.40
2023-04-11T05:35:41.310Z,663.53
2023-04-11T05:38:09.906Z,690.78
2023-04-11T05:40:39.955Z,678.45
2023-04-11T05:43:08.322Z,766.47
2023-04-11T05:45:36.880Z,646.00
2023-04-11T05:48:07.726Z,648.22
2023-04-11T05:50:36.297Z,717.30
2023-04-11T05:53:04.741Z,679.72
2023-04-11T05:55:33.046Z,686.15
2023-04-11T05:58:02.694Z,777.45
2023-04-11T06:00:32.377Z,715.42
2023-04-11T06:03:02.446Z,670.33
2023-04-11T06:05:31.588Z,615.25
2023-04-11T06:08:00.605Z,693.67
2023-04-11T06:10:29.508Z,718.78
2023-04-11T06:12:59.127Z,722.38
2023-04-11T06:15:30.335Z,599.60
2023-04-11T06:17:58.700Z,672.55
2023-04-11T06:20:27.118Z,664.10
2023-04-11T06:22:55.775Z,723.33
2023-04-11T06:25:24.774Z,623.85
2023-04-11T06:27:53.116Z,738.28
2023-04-11T06:30:21.417Z,645.00
2023-04-11T06:32:51.207Z,761.28
2023-04-11T06:35:20.365Z,734.78
2023-04-11T06:37:49.204Z,703.30
2023-04-11T06:40:17.682Z,661.72
2023-04-11T06:42:46.526Z,683.75
2023-04-11T06:45:15.021Z,693.88
2023-04-11T06:47:43.376Z,649.65
2023-04-11T06:50:13.972Z,649.45
2023-04-11T06:52:42.519Z,718.03
2023-04-11T06:55:14.392Z,620.83
2023-04-11T06:57:43.753Z,609.13
2023-04-11T07:00:13.589Z,646.75
2023-04-11T07:02:42.253Z,686.10
2023-04-11T07:05:12.869Z,581.65
2023-04-11T07:07:41.186Z,646.05
2023-04-11T07:10:10.760Z,541.03
2023-04-11T07:12:39.114Z,640.47
2023-04-11T07:15:08.922Z,620.55
2023-04-11T07:17:43.400Z,745.38
2023-04-11T07:22:43.743Z,553.85
2023-04-11T07:25:12.305Z,568.90
2023-04-11T07:27:43.579Z,571.50
2023-04-11T07:30:13.024Z,664.67
2023-04-11T07:32:41.618Z,559.38
2023-04-11T07:35:10.921Z,553.33
2023-04-11T07:37:42.321Z,576.65
2023-04-11T07:40:13.972Z,627.25
2023-04-11T07:42:42.342Z,761.40
2023-04-11T07:45:11.045Z,561.72
2023-04-11T07:47:39.476Z,575.72
2023-04-11T07:50:08.433Z,673.25
2023-04-11T07:52:36.928Z,647.40
2023-04-11T07:55:07.691Z,585.30
2023-04-11T07:57:36.059Z,455.10
2023-04-11T08:00:05.035Z,460.88
2023-04-11T08:02:33.853Z,383.83
2023-04-11T08:05:03.634Z,605.55
2023-04-11T08:07:32.028Z,421.98
2023-04-11T08:10:00.342Z,387.90
2023-04-11T08:12:30.005Z,479.25
2023-04-11T08:14:58.345Z,508.70
2023-04-11T08:17:29.318Z,433.67
2023-04-11T08:19:58.346Z,403.98
2023-04-11T08:22:27.780Z,448.20
2023-04-11T08:24:56.236Z,463.52
2023-04-11T08:27:24.576Z,511.15
2023-04-11T08:29:54.208Z,463.65
2023-04-11T08:32:22.533Z,413.98
2023-04-11T08:34:50.908Z,428.75
2023-04-11T08:37:19.221Z,442.55
2023-04-11T08:39:47.930Z,693.45
2023-04-11T08:42:25.777Z,432.77
2023-04-11T08:44:56.806Z,450.00
2023-04-11T08:47:25.709Z,529.17
2023-04-11T08:49:54.778Z,481.70
2023-04-11T08:52:23.395Z,454.48
2023-04-11T08:54:55.148Z,496.60
2023-04-11T08:57:27.565Z,522.72
2023-04-11T09:00:00.160Z,465.50
2023-04-11T09:02:28.877Z,471.65
2023-04-11T09:04:58.909Z,627.33
2023-04-11T09:07:29.337Z,449.88
2023-04-11T09:09:57.639Z,620.50
2023-04-11T09:12:30.715Z,429.10
2023-04-11T09:15:00.809Z,493.70
2023-04-11T09:17:42.555Z,449.58
2023-04-11T09:20:18.466Z,430.42
2023-04-11T09:22:46.944Z,510.42
2023-04-11T09:25:15.348Z,533.92
2023-04-11T09:27:43.666Z,472.67
2023-04-11T09:30:24.592Z,480.20
2023-04-11T09:32:54.107Z,429.73
2023-04-11T09:35:24.810Z,415.58
2023-04-11T09:37:56.196Z,485.05
2023-04-11T09:40:26.313Z,609.72
2023-04-11T09:43:00.336Z,515.53
2023-04-11T09:45:38.152Z,353.98
2023-04-11T09:48:12.888Z,397.75
2023-04-11T09:50:41.365Z,352.60
2023-04-11T09:53:09.865Z,383.65
2023-04-11T09:55:39.975Z,432.08
2023-04-11T09:58:11.697Z,470.38
2023-04-11T10:00:42.133Z,456.27
2023-04-11T10:03:10.575Z,755.17
2023-04-11T10:05:39.621Z,428.42
2023-04-11T10:08:12.301Z,403.10
2023-04-11T10:10:41.937Z,417.75
2023-04-11T10:13:40.861Z,489.00
2023-04-11T10:16:12.305Z,511.20
2023-04-11T10:19:26.068Z,486.52
2023-04-11T10:21:55.933Z,377.65
2023-04-11T10:24:26.588Z,453.25
2023-04-11T10:26:56.000Z,427.30
2023-04-11T10:29:51.691Z,578.83
2023-04-11T10:32:22.326Z,390.05
2023-04-11T10:35:23.451Z,435.70
2023-04-11T10:37:53.152Z,749.83
2023-04-11T10:40:22.269Z,451.75
2023-04-11T10:42:51.570Z,605.38
2023-04-11T10:45:27.273Z,401.98
2023-04-11T10:48:07.792Z,460.13
2023-04-11T10:50:40.643Z,372.92
2023-04-11T10:53:14.306Z,335.40
2023-04-11T10:55:48.059Z,367.80
2023-04-11T10:58:19.730Z,605.20
2023-04-11T11:01:26.640Z,440.15
2023-04-11T11:04:06.846Z,415.58
2023-04-11T11:06:46.222Z,467.90
2023-04-11T11:09:28.456Z,470.55
2023-04-11T11:12:09.853Z,430.73
2023-04-11T11:14:38.317Z,468.73
2023-04-11T11:17:07.556Z,482.17
2023-04-11T11:19:36.879Z,549.03
2023-04-11T11:22:06.282Z,473.63
2023-04-11T11:24:35.941Z,488.42
2023-04-11T11:27:04.361Z,540.35
2023-04-11T11:29:34.419Z,397.65
2023-04-11T11:32:03.998Z,346.02
2023-04-11T11:34:33.413Z,392.30
2023-04-11T11:37:04.641Z,491.23
2023-04-11T11:39:35.367Z,447.20
2023-04-11T11:42:04.413Z,352.75
2023-04-11T11:44:33.129Z,534.15
2023-04-11T11:47:05.720Z,367.17
2023-04-11T11:49:48.042Z,308.27
2023-04-11T11:52:32.395Z,345.27
2023-04-11T11:55:02.377Z,267.60
2023-04-11T11:57:30.757Z,253.80
2023-04-11T12:00:02.856Z,374.42
2023-04-11T12:02:31.366Z,263.30
2023-04-11T12:05:00.907Z,489.33
2023-04-11T12:07:33.443Z,211.10
2023-04-11T12:10:06.473Z,258.85
2023-04-11T12:12:36.179Z,210.07
2023-04-11T12:15:04.745Z,289.58
2023-04-11T12:17:37.825Z,290.60
2023-04-11T12:20:07.859Z,245.45
2023-04-11T12:22:36.659Z,329.83
2023-04-11T12:25:10.995Z,290.92
2023-04-11T12:27:40.431Z,298.00
2023-04-11T12:30:10.227Z,256.00
2023-04-11T12:32:39.038Z,234.27
2023-04-11T12:35:08.460Z,223.65
2023-04-11T12:37:36.942Z,194.55
2023-04-11T12:40:10.611Z,178.55
2023-04-11T12:45:12.647Z,256.02
2023-04-11T12:47:41.360Z,291.80
2023-04-11T12:50:10.808Z,208.82
2023-04-11T12:52:39.294Z,174.45
2023-04-11T12:55:09.164Z,344.63
2023-04-11T12:57:37.813Z,176.77
2023-04-11T13:00:10.659Z,183.02
2023-04-11T13:02:43.950Z,193.38
2023-04-11T13:05:15.035Z,157.20
2023-04-11T13:07:45.563Z,215.25
2023-04-11T13:10:15.641Z,235.52
2023-04-11T13:12:45.750Z,186.95
2023-04-11T13:15:17.033Z,163.10
2023-04-11T13:17:46.069Z,165.70
2023-04-11T13:20:14.717Z,183.55
2023-04-11T13:22:43.985Z,182.73
2023-04-11T13:25:13.056Z,158.15
2023-04-11T13:27:42.174Z,199.00
2023-04-11T13:30:11.815Z,208.82
2023-04-11T13:32:41.812Z,215.75
2023-04-11T13:35:11.244Z,210.20
2023-04-11T13:37:39.684Z,267.42
2023-04-11T13:40:11.184Z,216.02
2023-04-11T13:42:40.003Z,183.55
2023-04-11T13:45:09.921Z,202.00
2023-04-11T13:47:38.926Z,184.88
2023-04-11T13:50:10.320Z,164.75
2023-04-11T13:52:38.745Z,400.58
2023-04-11T13:55:07.808Z,149.98
2023-04-11T13:57:36.188Z,175.50
2023-04-11T14:00:11.837Z,132.13
2023-04-11T14:02:41.454Z,304.05
2023-04-11T14:05:13.027Z,262.65
2023-04-11T14:07:41.438Z,173.30
2023-04-11T14:10:10.650Z,420.08
2023-04-11T14:12:39.180Z,383.08
2023-04-11T14:15:08.972Z,211.48
2023-04-11T14:17:37.423Z,277.92
2023-04-11T14:20:07.044Z,200.75
2023-04-11T14:22:37.126Z,289.90
2023-04-11T14:25:06.532Z,163.50
2023-04-11T14:27:34.905Z,236.52
2023-04-11T14:30:03.429Z,355.38
2023-04-11T14:32:31.823Z,166.10
2023-04-11T14:35:02.177Z,186.02
2023-04-11T14:37:31.817Z,195.35
2023-04-11T14:40:01.597Z,147.90
2023-04-11T14:42:29.943Z,159.73
2023-04-11T14:44:58.329Z,177.35
2023-04-11T14:47:26.841Z,185.05
2023-04-11T14:49:56.840Z,253.35
2023-04-11T14:52:25.324Z,161.38
2023-04-11T14:54:53.960Z,402.40
2023-04-11T14:57:24.534Z,160.63
2023-04-11T14:59:52.892Z,146.23
2023-04-11T15:02:21.401Z,207.13
2023-04-11T15:04:49.979Z,283.88
2023-04-11T15:07:18.435Z,216.23
2023-04-11T15:09:47.017Z,288.98
2023-04-11T15:12:15.407Z,286.30
2023-04-11T15:14:45.084Z,135.18
2023-04-11T15:17:13.420Z,175.20
2023-04-11T15:19:41.784Z,157.88
2023-04-11T15:22:10.209Z,177.40
2023-04-11T15:24:38.540Z,268.58
2023-04-11T15:27:06.920Z,204.60
2023-04-11T15:29:36.345Z,145.90
2023-04-11T15:32:06.404Z,172.68
2023-04-11T15:34:34.742Z,219.85
2023-04-11T15:37:03.062Z,224.70
2023-04-11T15:39:31.560Z,139.90
2023-04-11T15:42:00.125Z,227.35
2023-04-11T15:44:28.488Z,220.60
2023-04-11T15:46:57.058Z,158.82
2023-04-11T15:49:26.928Z,201.02
2023-04-11T15:51:55.242Z,174.73
2023-04-11T15:54:23.552Z,161.65
2023-04-11T15:56:51.876Z,165.50
2023-04-11T15:59:20.313Z,149.57
2023-04-11T16:01:48.820Z,157.20
2023-04-11T16:04:19.733Z,333.40
2023-04-11T16:06:49.478Z,160.88
2023-04-11T16:09:18.413Z,154.07
2023-04-11T16:11:46.734Z,181.13
2023-04-11T16:14:15.490Z,167.68
2023-04-11T16:16:46.660Z,186.02
2023-04-11T16:19:15.115Z,204.00
2023-04-11T16:21:43.881Z,189.07
2023-04-11T16:24:13.671Z,393.13
2023-04-11T16:26:42.276Z,197.27
2023-04-11T16:29:10.711Z,197.68
2023-04-11T16:31:39.131Z,262.45
2023-04-11T16:34:07.750Z,417.58
2023-04-11T16:36:36.260Z,177.23
2023-04-11T16:39:04.836Z,167.63
2023-04-11T16:41:36.495Z,177.25
2023-04-11T16:44:05.962Z,319.35
2023-04-11T16:46:34.515Z,214.70
2023-04-11T16:49:02.844Z,200.95
2023-04-11T16:51:31.273Z,215.75
2023-04-11T16:53:59.622Z,323.77
2023-04-11T16:56:29.182Z,448.15
2023-04-11T16:58:58.966Z,236.50
2023-04-11T17:01:27.510Z,350.20
2023-04-11T17:03:56.193Z,356.10
2023-04-11T17:06:25.926Z,252.85
2023-04-11T17:08:54.295Z,255.48
2023-04-11T17:11:22.658Z,238.15
2023-04-11T17:13:51.470Z,381.90
2023-04-11T17:16:21.534Z,256.05
2023-04-11T17:18:49.900Z,312.08
2023-04-11T17:21:18.457Z,302.67
2023-04-11T17:23:48.130Z,548.03
2023-04-11T17:26:17.463Z,293.27
2023-04-11T17:28:46.884Z,314.08
2023-04-11T17:31:16.335Z,351.50
2023-04-11T17:33:46.403Z,326.88
2023-04-11T17:36:14.904Z,445.40
2023-04-11T17:38:43.428Z,347.90
2023-04-11T17:41:14.986Z,416.42
2023-04-11T17:43:44.116Z,469.90
2023-04-11T17:46:13.518Z,373.10
2023-04-11T17:48:42.043Z,366.10
2023-04-11T17:51:11.785Z,295.48
2023-04-11T17:53:40.978Z,358.33
2023-04-11T17:56:09.811Z,299.23
2023-04-11T17:58:42.382Z,570.25
2023-04-11T18:01:11.375Z,579.58
2023-04-11T18:03:41.067Z,539.45
2023-04-11T18:06:11.467Z,495.98
2023-04-11T18:08:49.615Z,497.52
2023-04-11T18:11:19.157Z,491.88
2023-04-11T18:13:50.068Z,395.20
2023-04-11T18:16:19.246Z,489.65
2023-04-11T18:18:48.332Z,413.80
2023-04-11T18:21:18.277Z,654.83
2023-04-11T18:23:46.620Z,384.42
2023-04-11T18:26:15.006Z,472.85
2023-04-11T18:28:43.380Z,451.38
2023-04-11T18:31:12.014Z,507.08
2023-04-11T18:33:44.053Z,453.48
2023-04-11T18:36:13.533Z,431.38
2023-04-11T18:38:43.854Z,441.95
2023-04-11T18:41:12.216Z,444.35
2023-04-11T18:43:41.304Z,603.50
2023-04-11T18:46:09.890Z,435.75
2023-04-11T18:48:38.313Z,447.55
2023-04-11T18:51:07.152Z,425.48
2023-04-11T18:53:36.516Z,668.22
2023-04-11T18:56:07.202Z,383.48
2023-04-11T18:58:39.601Z,408.48
2023-04-11T19:01:15.482Z,513.25
2023-04-11T19:03:46.102Z,406.00
2023-04-11T19:06:15.008Z,404.58
2023-04-11T19:08:43.324Z,382.73
2023-04-11T19:11:13.073Z,494.45
2023-04-11T19:13:41.640Z,418.67
2023-04-11T19:16:10.108Z,407.60
2023-04-11T19:18:38.531Z,481.27
2023-04-11T19:21:07.546Z,404.73
2023-04-11T19:23:35.883Z,668.90
2023-04-11T19:26:04.852Z,401.63
2023-04-11T19:28:34.578Z,405.17
2023-04-11T19:31:02.956Z,455.80
2023-04-11T19:33:31.320Z,350.52
2023-04-11T19:35:59.756Z,398.08
2023-04-11T19:38:28.203Z,390.38
2023-04-11T19:40:56.701Z,379.40
2023-04-11T19:43:25.320Z,355.25
2023-04-11T19:45:55.149Z,401.60
2023-04-11T19:48:23.790Z,505.23
2023-04-11T19:50:53.450Z,417.35
2023-04-11T19:53:21.768Z,391.27
2023-04-11T19:55:52.492Z,369.08
2023-04-11T19:58:21.358Z,384.00
2023-04-11T20:00:49.895Z,350.15
2023-04-11T20:03:20.254Z,369.75
2023-04-11T20:05:48.904Z,341.10
2023-04-11T20:08:17.702Z,348.10
2023-04-11T20:10:46.204Z,370.20
2023-04-11T20:13:15.776Z,346.85
2023-04-11T20:15:45.114Z,340.02
2023-04-11T20:18:13.545Z,349.27
2023-04-11T20:20:43.309Z,514.33
2023-04-11T20:23:15.472Z,386.98
2023-04-11T20:25:44.064Z,367.52
2023-04-11T20:28:12.402Z,343.90
2023-04-11T20:30:41.092Z,343.95
2023-04-11T20:33:09.562Z,350.20
2023-04-11T20:35:38.058Z,349.63
2023-04-11T20:38:07.853Z,428.55
2023-04-11T20:40:36.972Z,371.30
2023-04-11T20:43:05.568Z,342.90
2023-04-11T20:45:34.147Z,360.77
2023-04-11T20:48:03.585Z,347.63
2023-04-11T20:50:33.316Z,334.23
2023-04-11T20:53:02.730Z,393.02
2023-04-11T20:55:33.325Z,373.08
2023-04-11T20:58:01.705Z,338.83
2023-04-11T21:00:30.217Z,335.95
2023-04-11T21:02:58.808Z,329.83
2023-04-11T21:05:28.210Z,353.85
2023-04-11T21:07:58.348Z,431.20
2023-04-11T21:10:26.887Z,340.75
2023-04-11T21:12:56.537Z,336.58
2023-04-11T21:15:25.452Z,325.10
2023-04-11T21:17:53.836Z,317.05
2023-04-11T21:20:22.654Z,376.90
2023-04-11T21:22:53.712Z,441.08
2023-04-11T21:25:22.511Z,353.50
2023-04-11T21:27:50.936Z,344.95
2023-04-11T21:30:20.805Z,316.33
2023-04-11T21:32:49.200Z,338.55
2023-04-11T21:35:17.942Z,325.30
2023-04-11T21:37:48.560Z,335.73
2023-04-11T21:40:17.642Z,344.92
2023-04-11T21:42:46.179Z,310.77
2023-04-11T21:45:14.515Z,332.17
2023-04-11T21:47:44.276Z,345.38
2023-04-11T21:50:13.298Z,372.65
2023-04-11T21:52:43.370Z,372.90
2023-04-11T21:55:12.441Z,320.52
2023-04-11T21:57:40.806Z,351.13
2023-04-11T22:00:11.265Z,395.13
2023-04-11T22:02:40.197Z,309.10
2023-04-11T22:05:10.618Z,309.92
2023-04-11T22:07:39.489Z,330.08
2023-04-11T22:10:12.075Z,319.85
2023-04-11T22:12:41.629Z,340.63
2023-04-11T22:15:12.898Z,292.08
2023-04-11T22:17:43.535Z,312.67
2023-04-11T22:20:14.203Z,284.45
2023-04-11T22:22:42.583Z,286.98
2023-04-11T22:25:11.552Z,274.58
2023-04-11T22:27:40.038Z,276.67
2023-04-11T22:30:11.061Z,306.25
2023-04-11T22:32:39.502Z,277.95
2023-04-11T22:35:09.224Z,257.65
2023-04-11T22:37:39.046Z,301.58
2023-04-11T22:40:11.531Z,322.70
2023-04-11T22:42:40.364Z,332.30
2023-04-11T22:45:09.670Z,338.10
2023-04-11T22:47:40.082Z,331.25
2023-04-11T22:50:09.338Z,289.13
2023-04-11T22:52:41.913Z,310.80
2023-04-11T22:55:11.796Z,284.83
2023-04-11T22:57:40.997Z,294.80
2023-04-11T23:00:12.104Z,287.13
2023-04-11T23:02:40.815Z,332.45
2023-04-11T23:05:11.155Z,293.50
2023-04-11T23:07:40.855Z,290.23
2023-04-11T23:10:11.890Z,272.80
2023-04-11T23:12:40.546Z,288.25
2023-04-11T23:15:09.984Z,304.83
2023-04-11T23:17:38.640Z,275.48
2023-04-11T23:20:10.941Z,298.58
2023-04-11T23:22:42.101Z,296.30
2023-04-11T23:25:11.813Z,309.35
2023-04-11T23:27:40.576Z,350.02
2023-04-11T23:30:11.648Z,308.88
2023-04-11T23:32:40.822Z,297.88
2023-04-11T23:35:10.528Z,296.92
2023-04-11T23:37:40.971Z,342.23
2023-04-11T23:40:13.329Z,339.77
2023-04-11T23:42:42.319Z,316.55
2023-04-11T23:45:12.656Z,327.83
2023-04-11T23:47:41.144Z,309.90
2023-04-11T23:50:10.615Z,313.88
2023-04-11T23:52:40.636Z,299.25
2023-04-11T23:55:09.748Z,299.95
2023-04-11T23:57:38.230Z,274.75
